createdAt,value
2022-11-29T00:02:10.318Z,58.27
2022-11-29T00:05:12.857Z,55.28
2022-11-29T00:08:16.679Z,51.55
2022-11-29T00:11:39.899Z,54.05
2022-11-29T00:14:42.910Z,49.72
2022-11-29T00:17:45.551Z,53.07
2022-11-29T00:20:48.000Z,59.83
2022-11-29T00:23:51.840Z,53.72
2022-11-29T00:26:54.272Z,54.17
2022-11-29T00:29:56.722Z,53.15
2022-11-29T00:32:59.163Z,54.33
2022-11-29T00:36:01.646Z,59.95
2022-11-29T00:39:06.675Z,59.60
2022-11-29T00:42:09.105Z,55.63
2022-11-29T00:45:12.109Z,67.05
2022-11-29T00:48:14.511Z,74.30
2022-11-29T00:51:16.955Z,53.75
2022-11-29T00:54:20.737Z,64.07
2022-11-29T00:57:23.303Z,55.17
2022-11-29T01:00:25.731Z,57.13
2022-11-29T01:03:28.252Z,62.20
2022-11-29T01:06:30.816Z,59.47
2022-11-29T01:09:34.563Z,59.72
2022-11-29T01:12:38.138Z,55.63
2022-11-29T01:15:41.284Z,50.83
2022-11-29T01:18:44.398Z,50.80
2022-11-29T01:21:46.763Z,41.10
2022-11-29T01:24:50.655Z,81.25
2022-11-29T01:27:54.267Z,52.72
2022-11-29T01:30:57.061Z,66.53
2022-11-29T01:34:01.244Z,54.90
2022-11-29T01:37:03.696Z,56.30
2022-11-29T01:40:08.825Z,58.85
2022-11-29T01:43:16.203Z,53.15
2022-11-29T01:46:18.840Z,62.92
2022-11-29T01:49:27.141Z,64.93
2022-11-29T01:52:32.663Z,45.75
2022-11-29T01:55:40.559Z,53.50
2022-11-29T01:58:45.103Z,49.58
2022-11-29T02:01:47.663Z,67.63
2022-11-29T02:04:50.543Z,50.93
2022-11-29T02:07:56.259Z,62.28
2022-11-29T02:11:26.210Z,55.17
2022-11-29T02:14:47.458Z,57.03
2022-11-29T02:18:02.694Z,60.13
2022-11-29T02:21:20.493Z,60.37
2022-11-29T02:24:50.565Z,51.92
2022-11-29T02:28:43.379Z,62.05
2022-11-29T02:32:27.904Z,63.60
2022-11-29T02:36:08.558Z,58.13
2022-11-29T02:39:52.976Z,67.13
2022-11-29T02:43:12.020Z,59.33
2022-11-29T02:46:44.303Z,80.18
2022-11-29T02:50:09.000Z,69.03
2022-11-29T02:53:18.651Z,81.13
2022-11-29T02:56:27.220Z,69.63
2022-11-29T02:59:42.748Z,66.43
2022-11-29T03:02:53.866Z,73.25
2022-11-29T03:06:07.948Z,91.47
2022-11-29T03:09:19.177Z,86.65
2022-11-29T03:12:32.435Z,80.63
2022-11-29T03:15:41.732Z,80.30
2022-11-29T03:18:58.053Z,58.03
2022-11-29T03:22:10.783Z,83.82
2022-11-29T03:25:22.932Z,63.00
2022-11-29T03:28:31.834Z,59.87
2022-11-29T03:31:39.718Z,60.78
2022-11-29T03:34:58.302Z,62.03
2022-11-29T03:38:09.464Z,47.70
2022-11-29T03:41:20.926Z,66.82
2022-11-29T03:44:28.279Z,45.47
2022-11-29T03:47:36.682Z,54.53
2022-11-29T03:50:43.331Z,55.30
2022-11-29T03:53:50.663Z,68.22
2022-11-29T03:56:55.398Z,50.83
2022-11-29T04:00:05.701Z,58.77
2022-11-29T04:03:49.242Z,48.28
2022-11-29T04:07:06.896Z,54.13
2022-11-29T04:10:19.766Z,75.63
2022-11-29T04:13:57.797Z,51.53
2022-11-29T04:17:29.508Z,72.13
2022-11-29T04:21:12.718Z,50.05
2022-11-29T04:25:03.549Z,58.22
2022-11-29T04:28:48.704Z,55.85
2022-11-29T04:32:14.699Z,52.70
2022-11-29T04:35:32.732Z,65.43
2022-11-29T04:39:00.715Z,59.63
2022-11-29T04:42:36.744Z,73.50
2022-11-29T04:46:05.407Z,54.88
2022-11-29T04:49:37.313Z,65.88
2022-11-29T04:52:56.606Z,77.00
2022-11-29T04:56:11.475Z,72.50
2022-11-29T04:59:21.558Z,101.80
2022-11-29T05:02:33.145Z,65.20
2022-11-29T05:05:43.333Z,62.00
2022-11-29T05:08:52.609Z,68.87
2022-11-29T05:12:08.091Z,72.72
2022-11-29T05:15:38.366Z,83.15
2022-11-29T05:19:04.755Z,72.75
2022-11-29T05:22:22.536Z,71.88
2022-11-29T05:25:37.170Z,66.77
2022-11-29T05:28:50.281Z,76.55
2022-11-29T05:32:21.133Z,73.80
2022-11-29T05:36:02.116Z,69.65
2022-11-29T05:39:25.935Z,63.28
2022-11-29T05:43:04.040Z,71.70
2022-11-29T05:46:12.817Z,99.63
2022-11-29T05:49:24.089Z,95.90
2022-11-29T05:52:39.493Z,72.03
2022-11-29T05:55:53.061Z,68.28
2022-11-29T05:59:00.005Z,67.63
2022-11-29T06:02:10.000Z,63.80
2022-11-29T06:05:20.445Z,59.92
2022-11-29T06:08:34.199Z,55.30
2022-11-29T06:11:44.947Z,64.40
2022-11-29T06:15:17.324Z,55.77
2022-11-29T06:18:40.564Z,58.65
2022-11-29T06:21:50.644Z,59.83
2022-11-29T06:25:12.130Z,53.65
2022-11-29T06:28:28.488Z,56.50
2022-11-29T06:31:34.378Z,60.73
2022-11-29T06:34:45.402Z,49.67
2022-11-29T06:37:51.147Z,60.55
2022-11-29T06:41:01.567Z,51.22
2022-11-29T06:44:19.157Z,49.95
2022-11-29T06:47:28.527Z,56.80
2022-11-29T06:51:03.141Z,81.25
2022-11-29T06:54:17.300Z,87.65
2022-11-29T06:57:25.854Z,47.67
2022-11-29T07:00:39.394Z,43.92
2022-11-29T07:03:54.372Z,46.07
2022-11-29T07:06:57.341Z,42.08
2022-11-29T07:10:02.933Z,54.05
2022-11-29T07:13:05.945Z,49.15
2022-11-29T07:16:17.393Z,41.30
2022-11-29T07:19:33.208Z,44.70
2022-11-29T07:22:56.282Z,63.40
2022-11-29T07:26:09.841Z,97.90
2022-11-29T07:29:24.602Z,70.60
2022-11-29T07:32:40.162Z,66.03
2022-11-29T07:35:50.339Z,48.73
2022-11-29T07:39:01.693Z,49.70
2022-11-29T07:42:11.949Z,39.33
2022-11-29T07:45:21.430Z,48.53
2022-11-29T07:52:04.609Z,44.27
2022-11-29T07:55:17.096Z,45.10
2022-11-29T07:58:21.190Z,49.42
2022-11-29T08:01:23.855Z,45.03
2022-11-29T08:04:27.855Z,48.25
2022-11-29T08:07:30.804Z,42.83
2022-11-29T08:10:34.605Z,44.63
2022-11-29T08:13:43.949Z,68.35
2022-11-29T08:16:49.319Z,47.20
2022-11-29T08:19:54.347Z,49.88
2022-11-29T08:22:59.171Z,43.23
2022-11-29T08:26:02.520Z,41.17
2022-11-29T08:29:05.210Z,36.00
2022-11-29T08:32:08.998Z,39.58
2022-11-29T08:35:14.647Z,48.13
2022-11-29T08:38:17.231Z,39.40
2022-11-29T08:41:19.659Z,41.45
2022-11-29T08:44:22.342Z,41.35
2022-11-29T08:47:36.754Z,43.17
2022-11-29T08:50:41.045Z,37.55
2022-11-29T08:53:44.649Z,42.60
2022-11-29T08:57:31.048Z,44.22
2022-11-29T09:00:11.192Z,39.05
2022-11-29T09:03:32.105Z,42.15
2022-11-29T09:06:40.194Z,40.60
2022-11-29T09:09:42.887Z,38.63
2022-11-29T09:12:45.788Z,44.78
2022-11-29T09:15:48.490Z,52.53
2022-11-29T09:18:55.940Z,46.05
2022-11-29T09:21:59.959Z,46.50
2022-11-29T09:25:02.431Z,49.83
2022-11-29T09:28:05.775Z,45.45
2022-11-29T09:31:10.362Z,46.72
2022-11-29T09:34:13.602Z,44.95
2022-11-29T09:37:17.438Z,47.33
2022-11-29T09:40:25.916Z,50.40
2022-11-29T09:43:38.934Z,48.30
2022-11-29T09:46:52.242Z,51.55
2022-11-29T09:50:16.767Z,50.08
2022-11-29T09:53:38.151Z,45.65
2022-11-29T09:56:47.329Z,57.43
2022-11-29T09:59:53.049Z,55.38
2022-11-29T10:03:02.149Z,55.95
2022-11-29T10:06:11.651Z,53.15
2022-11-29T10:09:22.509Z,55.38
2022-11-29T10:12:35.088Z,53.90
2022-11-29T10:15:43.205Z,50.47
2022-11-29T10:18:50.467Z,46.95
2022-11-29T10:22:01.928Z,46.70
2022-11-29T10:25:10.659Z,46.78
2022-11-29T10:28:15.798Z,47.10
2022-11-29T10:31:21.960Z,47.53
2022-11-29T10:34:26.622Z,45.80
2022-11-29T10:37:32.731Z,53.00
2022-11-29T10:40:39.805Z,48.90
2022-11-29T10:43:43.184Z,53.23
2022-11-29T10:46:45.647Z,48.80
2022-11-29T10:49:48.501Z,58.28
2022-11-29T10:52:53.629Z,57.75
2022-11-29T10:56:06.033Z,62.88
2022-11-29T10:59:20.244Z,55.97
2022-11-29T11:02:24.290Z,54.22
2022-11-29T11:05:27.240Z,62.45
2022-11-29T11:08:32.609Z,55.30
2022-11-29T11:11:36.948Z,60.47
2022-11-29T11:14:39.557Z,57.37
2022-11-29T11:17:59.617Z,61.78
2022-11-29T11:24:32.142Z,50.25
2022-11-29T11:27:40.331Z,56.05
2022-11-29T11:30:50.899Z,52.03
2022-11-29T11:33:53.659Z,49.83
2022-11-29T11:37:19.036Z,60.50
2022-11-29T11:40:28.937Z,55.45
2022-11-29T11:43:34.042Z,51.80
2022-11-29T11:46:48.302Z,57.10
2022-11-29T11:49:55.950Z,57.83
2022-11-29T11:53:02.269Z,55.67
2022-11-29T11:56:07.789Z,68.95
2022-11-29T11:59:20.006Z,66.90
2022-11-29T12:02:35.940Z,56.70
2022-11-29T12:05:41.449Z,59.70
2022-11-29T12:08:49.400Z,55.03
2022-11-29T12:12:00.527Z,56.35
2022-11-29T12:15:08.563Z,58.03
2022-11-29T12:18:14.269Z,58.60
2022-11-29T12:21:22.757Z,67.50
2022-11-29T12:24:31.400Z,50.25
2022-11-29T12:27:34.121Z,50.00
2022-11-29T12:30:41.992Z,55.42
2022-11-29T12:33:50.882Z,51.97
2022-11-29T12:36:59.740Z,52.15
2022-11-29T12:40:06.719Z,45.47
2022-11-29T12:43:18.644Z,56.90
2022-11-29T12:46:26.334Z,50.75
2022-11-29T12:49:34.549Z,52.60
2022-11-29T12:52:45.410Z,48.72
2022-11-29T12:55:57.263Z,50.20
2022-11-29T12:59:29.576Z,47.85
2022-11-29T13:02:44.442Z,48.53
2022-11-29T13:05:58.372Z,49.33
2022-11-29T13:09:32.870Z,49.05
2022-11-29T13:12:39.897Z,59.22
2022-11-29T13:16:31.247Z,49.22
2022-11-29T13:19:57.592Z,49.08
2022-11-29T13:23:08.687Z,57.63
2022-11-29T13:26:12.866Z,58.97
2022-11-29T13:29:18.211Z,51.08
2022-11-29T13:32:31.668Z,49.67
2022-11-29T13:35:43.088Z,50.00
2022-11-29T13:38:57.140Z,50.53
2022-11-29T13:42:08.600Z,53.20
2022-11-29T13:45:21.462Z,47.55
2022-11-29T13:48:45.876Z,48.65
2022-11-29T13:52:04.551Z,50.72
2022-11-29T13:55:31.733Z,45.40
2022-11-29T13:58:37.273Z,51.00
2022-11-29T14:01:45.810Z,46.00
2022-11-29T14:04:48.556Z,51.47
2022-11-29T14:08:26.220Z,52.75
2022-11-29T14:11:33.577Z,49.27
2022-11-29T14:14:48.373Z,53.35
2022-11-29T14:17:54.533Z,61.03
2022-11-29T14:20:58.246Z,46.42
2022-11-29T14:24:41.080Z,55.85
2022-11-29T14:28:04.529Z,47.27
2022-11-29T14:31:08.074Z,47.85
2022-11-29T14:34:15.905Z,49.90
2022-11-29T14:37:30.805Z,55.65
2022-11-29T14:40:44.410Z,45.08
2022-11-29T14:43:48.783Z,49.20
2022-11-29T14:47:01.004Z,54.85
2022-11-29T14:50:09.337Z,58.00
2022-11-29T14:53:29.687Z,60.33
2022-11-29T14:56:39.172Z,54.67
2022-11-29T14:59:49.368Z,52.47
2022-11-29T15:02:55.298Z,56.88
2022-11-29T15:05:59.780Z,62.90
2022-11-29T15:09:05.940Z,58.45
2022-11-29T15:12:17.070Z,73.88
2022-11-29T15:15:32.824Z,77.07
2022-11-29T15:18:55.086Z,63.17
2022-11-29T15:22:07.403Z,51.42
2022-11-29T15:25:12.872Z,52.97
2022-11-29T15:28:21.953Z,59.17
2022-11-29T15:31:24.582Z,53.93
2022-11-29T15:34:32.004Z,71.93
2022-11-29T15:37:44.463Z,64.28
2022-11-29T15:40:52.768Z,55.38
2022-11-29T15:43:59.326Z,58.38
2022-11-29T15:47:21.672Z,55.63
2022-11-29T15:50:26.137Z,62.90
2022-11-29T15:53:34.178Z,64.63
2022-11-29T15:56:42.469Z,62.30
2022-11-29T15:59:48.905Z,54.42
2022-11-29T16:02:55.998Z,64.40
2022-11-29T16:06:05.825Z,78.15
2022-11-29T16:09:11.950Z,66.75
2022-11-29T16:12:17.564Z,67.45
2022-11-29T16:15:28.925Z,70.50
2022-11-29T16:18:33.660Z,57.43
2022-11-29T16:21:36.271Z,55.90
2022-11-29T16:24:40.255Z,58.83
2022-11-29T16:27:43.317Z,63.65
2022-11-29T16:30:47.806Z,61.40
2022-11-29T16:33:52.541Z,60.03
2022-11-29T16:37:01.901Z,53.55
2022-11-29T16:40:06.003Z,56.90
2022-11-29T16:43:20.579Z,49.92
2022-11-29T16:46:33.925Z,52.13
2022-11-29T16:49:36.819Z,53.73
2022-11-29T16:52:39.294Z,53.20
2022-11-29T16:55:41.798Z,49.08
2022-11-29T16:59:20.491Z,54.47
2022-11-29T17:02:12.232Z,47.65
2022-11-29T17:05:14.961Z,56.90
2022-11-29T17:08:17.652Z,51.47
2022-11-29T17:11:20.189Z,56.22
2022-11-29T17:14:23.163Z,57.63
2022-11-29T17:17:27.082Z,79.13
2022-11-29T17:20:29.547Z,63.77
2022-11-29T17:23:32.629Z,77.07
2022-11-29T17:26:35.183Z,67.95
2022-11-29T17:29:37.619Z,69.85
2022-11-29T17:32:41.675Z,71.80
2022-11-29T17:35:44.602Z,70.70
2022-11-29T17:38:47.794Z,60.88
2022-11-29T17:41:50.588Z,66.13
2022-11-29T17:44:53.086Z,69.32
2022-11-29T17:47:58.907Z,58.40
2022-11-29T17:51:01.999Z,59.60
2022-11-29T17:54:04.844Z,67.65
2022-11-29T17:57:07.543Z,81.60
2022-11-29T18:00:13.366Z,70.35
2022-11-29T18:03:23.087Z,77.63
2022-11-29T18:06:30.505Z,64.83
2022-11-29T18:09:33.285Z,69.90
2022-11-29T18:12:36.263Z,78.32
2022-11-29T18:15:38.816Z,72.65
2022-11-29T18:18:43.390Z,68.15
2022-11-29T18:21:46.634Z,94.30
2022-11-29T18:24:50.672Z,91.95
2022-11-29T18:27:53.307Z,92.85
2022-11-29T18:30:56.544Z,78.60
2022-11-29T18:34:06.223Z,70.35
2022-11-29T18:37:15.277Z,71.47
2022-11-29T18:40:20.855Z,70.95
2022-11-29T18:43:23.557Z,55.92
2022-11-29T18:46:32.140Z,60.10
2022-11-29T18:49:36.424Z,62.42
2022-11-29T18:52:40.822Z,63.10
2022-11-29T18:55:43.651Z,63.25
2022-11-29T18:58:47.787Z,78.43
2022-11-29T19:01:50.926Z,68.15
2022-11-29T19:04:55.088Z,61.35
2022-11-29T19:07:57.837Z,64.37
2022-11-29T19:11:04.149Z,60.92
2022-11-29T19:14:11.583Z,61.63
2022-11-29T19:17:14.314Z,64.43
2022-11-29T19:20:18.532Z,58.88
2022-11-29T19:23:21.808Z,74.37
2022-11-29T19:26:26.683Z,65.70
2022-11-29T19:29:29.196Z,65.82
2022-11-29T19:32:31.801Z,62.00
2022-11-29T19:35:36.006Z,77.80
2022-11-29T19:38:39.687Z,82.53
2022-11-29T19:41:44.889Z,83.40
2022-11-29T19:45:15.294Z,72.00
2022-11-29T19:48:10.421Z,73.63
2022-11-29T19:51:18.931Z,71.93
2022-11-29T19:54:21.912Z,72.70
2022-11-29T19:57:24.395Z,71.53
2022-11-29T20:00:28.215Z,77.72
2022-11-29T20:03:30.906Z,70.90
2022-11-29T20:06:35.067Z,71.53
2022-11-29T20:09:38.332Z,71.53
2022-11-29T20:12:42.067Z,68.53
2022-11-29T20:15:44.985Z,76.28
2022-11-29T20:18:51.222Z,74.18
2022-11-29T20:21:56.252Z,76.35
2022-11-29T20:24:59.011Z,78.23
2022-11-29T20:28:04.072Z,78.50
2022-11-29T20:31:07.848Z,69.45
2022-11-29T20:34:12.220Z,84.75
2022-11-29T20:37:32.886Z,88.15
2022-11-29T20:40:43.197Z,74.03
2022-11-29T20:43:50.436Z,71.65
2022-11-29T20:46:53.202Z,67.32
2022-11-29T20:49:57.177Z,68.40
2022-11-29T20:53:22.195Z,72.75
2022-11-29T20:56:24.929Z,65.97
2022-11-29T20:59:28.440Z,62.42
2022-11-29T21:02:31.159Z,71.40
2022-11-29T21:05:37.317Z,67.05
2022-11-29T21:08:41.513Z,77.07
2022-11-29T21:11:44.570Z,70.93
2022-11-29T21:14:47.798Z,74.63
2022-11-29T21:17:50.973Z,74.20
2022-11-29T21:21:02.961Z,77.22
2022-11-29T21:24:18.005Z,76.50
2022-11-29T21:27:26.798Z,78.73
2022-11-29T21:30:29.905Z,76.22
2022-11-29T21:33:34.104Z,76.95
2022-11-29T21:36:37.327Z,76.72
2022-11-29T21:39:41.809Z,75.95
2022-11-29T21:42:44.214Z,68.00
2022-11-29T21:45:47.900Z,73.57
2022-11-29T21:48:51.921Z,65.10
2022-11-29T21:51:57.488Z,74.05
2022-11-29T21:55:01.419Z,71.40
2022-11-29T21:58:03.838Z,68.87
2022-11-29T22:01:11.761Z,72.05
2022-11-29T22:04:14.349Z,66.75
2022-11-29T22:07:16.875Z,68.20
2022-11-29T22:10:20.784Z,68.68
2022-11-29T22:13:23.304Z,61.57
2022-11-29T22:16:26.099Z,73.65
2022-11-29T22:19:30.660Z,64.20
2022-11-29T22:22:33.309Z,68.50
2022-11-29T22:25:37.075Z,64.78
2022-11-29T22:28:39.511Z,66.17
2022-11-29T22:31:42.480Z,61.85
2022-11-29T22:34:45.172Z,59.05
2022-11-29T22:37:48.030Z,61.22
2022-11-29T22:40:52.475Z,60.47
2022-11-29T22:43:55.003Z,58.17
2022-11-29T22:46:57.493Z,59.60
2022-11-29T22:50:01.041Z,61.63
2022-11-29T22:53:04.511Z,55.63
2022-11-29T22:56:10.765Z,55.42
2022-11-29T22:59:14.001Z,52.97
2022-11-29T23:02:16.423Z,57.00
2022-11-29T23:05:18.863Z,56.20
2022-11-29T23:08:21.320Z,55.53
2022-11-29T23:11:27.286Z,53.47
2022-11-29T23:14:29.720Z,54.70
2022-11-29T23:17:32.154Z,53.63
2022-11-29T23:20:34.763Z,52.10
2022-11-29T23:23:38.352Z,53.22
2022-11-29T23:26:44.012Z,47.85
2022-11-29T23:29:46.420Z,46.70
2022-11-29T23:32:48.840Z,48.47
2022-11-29T23:35:51.578Z,43.90
2022-11-29T23:38:54.146Z,46.75
2022-11-29T23:41:57.881Z,42.38
2022-11-29T23:45:00.348Z,42.10
2022-11-29T23:48:02.891Z,44.70
2022-11-29T23:51:05.347Z,41.85
2022-11-29T23:54:07.992Z,42.47
2022-11-29T23:57:11.774Z,44.63
